Terminal Aerodrome Forecast
Issued by NWS Wilmington, OH

Current Version | Previous Version | Graphics & Text | Print | Product List | Glossary On
Versions: 1 2 3 4 5 6 7 8 9 10 11 12 13 14 15 16 17 18
399
FTUS41 KILN 222332
TAFDAY
TAF
KDAY 222332Z 2300/2324 07007KT P6SM BKN200
     FM231500 12011G19KT P6SM VCSH BKN070
     FM231800 12012G20KT 5SM -SHRA OVC035
     FM232100 12013G20KT 5SM -SHRA OVC030
     FM232200 11013KT P6SM VCSH OVC035=

USA.gov is the U.S. government's official web portal to all federal, state and local government web resources and services.